createdAt,value
2023-03-21T00:03:53.039Z,8.75
2023-03-21T00:08:54.673Z,8.95
2023-03-21T00:14:02.316Z,9.52
2023-03-21T00:19:06.358Z,11.20
2023-03-21T00:24:08.188Z,7.57
2023-03-21T00:29:10.114Z,11.27
2023-03-21T00:39:15.374Z,11.88
2023-03-21T00:44:17.547Z,7.85
2023-03-21T00:49:20.923Z,11.18
2023-03-21T00:54:22.558Z,11.75
2023-03-21T00:59:24.155Z,11.23
2023-03-21T01:04:26.829Z,9.52
2023-03-21T01:09:28.476Z,12.05
2023-03-21T01:14:30.131Z,11.07
2023-03-21T01:19:48.326Z,9.35
2023-03-21T01:30:06.255Z,9.20
2023-03-21T01:35:10.691Z,10.10
2023-03-21T01:40:18.525Z,8.15
2023-03-21T01:46:08.157Z,7.80
2023-03-21T01:51:36.306Z,8.47
2023-03-21T01:56:40.078Z,9.40
2023-03-21T02:01:45.081Z,9.98
2023-03-21T02:07:12.154Z,14.77
2023-03-21T02:12:19.516Z,9.23
2023-03-21T02:17:50.875Z,13.20
2023-03-21T02:23:24.732Z,13.23
2023-03-21T02:28:45.593Z,12.68
2023-03-21T02:33:56.748Z,11.30
2023-03-21T02:39:16.040Z,9.60
2023-03-21T02:44:29.916Z,9.88
2023-03-21T02:49:38.373Z,8.20
2023-03-21T02:54:48.272Z,9.15
2023-03-21T03:00:00.337Z,11.68
2023-03-21T03:05:34.489Z,4.93
2023-03-21T03:11:00.797Z,6.45
2023-03-21T03:16:10.170Z,10.50
2023-03-21T03:21:37.925Z,7.20
2023-03-21T03:26:57.105Z,8.00
2023-03-21T03:32:08.711Z,7.57
2023-03-21T03:37:16.167Z,10.02
2023-03-21T03:42:28.556Z,9.77
2023-03-21T03:47:57.434Z,11.45
2023-03-21T03:53:21.955Z,13.55
2023-03-21T03:58:39.498Z,11.60
2023-03-21T04:03:54.463Z,12.70
2023-03-21T04:09:03.435Z,15.93
2023-03-21T04:14:07.688Z,16.20
2023-03-21T04:19:09.841Z,12.10
2023-03-21T04:24:13.856Z,11.77
2023-03-21T04:29:17.564Z,11.43
2023-03-21T04:34:40.212Z,11.38
2023-03-21T04:39:42.914Z,14.52
2023-03-21T04:44:45.983Z,10.07
2023-03-21T04:49:50.487Z,10.43
2023-03-21T04:54:52.126Z,11.90
2023-03-21T04:59:53.940Z,11.75
2023-03-21T05:04:57.516Z,13.57
2023-03-21T05:10:01.310Z,13.88
2023-03-21T05:15:05.771Z,13.52
2023-03-21T05:20:09.777Z,14.98
2023-03-21T05:25:13.165Z,14.00
2023-03-21T05:30:35.814Z,14.25
2023-03-21T05:35:38.804Z,12.77
2023-03-21T05:40:50.774Z,13.80
2023-03-21T05:45:53.141Z,11.40
2023-03-21T05:50:55.905Z,15.57
2023-03-21T05:55:58.602Z,16.65
2023-03-21T06:01:18.955Z,17.05
2023-03-21T06:06:28.938Z,14.75
2023-03-21T06:11:38.980Z,16.98
2023-03-21T06:17:03.744Z,30.13
2023-03-21T06:22:06.567Z,16.65
2023-03-21T06:27:11.073Z,15.30
2023-03-21T06:32:31.350Z,17.25
2023-03-21T06:37:42.976Z,18.95
2023-03-21T06:42:45.538Z,15.73
2023-03-21T06:47:48.280Z,17.90
2023-03-21T06:53:01.152Z,18.00
2023-03-21T06:58:06.916Z,21.90
2023-03-21T07:03:08.658Z,19.80
2023-03-21T07:08:13.362Z,16.75
2023-03-21T07:13:15.843Z,20.00
2023-03-21T07:18:22.439Z,18.10
2023-03-21T07:23:25.838Z,16.30
2023-03-21T07:28:28.075Z,16.42
2023-03-21T07:33:30.415Z,18.27
2023-03-21T07:38:34.358Z,18.70
2023-03-21T07:43:37.209Z,19.20
2023-03-21T07:48:44.236Z,17.27
2023-03-21T07:53:48.574Z,23.27
2023-03-21T07:58:50.482Z,17.58
2023-03-21T08:03:53.714Z,14.95
2023-03-21T08:08:55.527Z,16.05
2023-03-21T08:13:58.335Z,18.40
2023-03-21T08:18:59.966Z,20.10
2023-03-21T08:24:01.698Z,17.23
2023-03-21T08:29:03.463Z,13.57
2023-03-21T08:34:05.221Z,15.68
2023-03-21T08:39:06.851Z,14.23
2023-03-21T08:44:09.684Z,15.43
2023-03-21T08:49:12.579Z,17.20
2023-03-21T08:54:22.348Z,17.40
2023-03-21T08:59:24.076Z,15.40
2023-03-21T09:04:30.630Z,14.25
2023-03-21T09:09:32.761Z,14.82
2023-03-21T09:14:35.925Z,15.20
2023-03-21T09:19:38.913Z,12.13
2023-03-21T09:24:42.229Z,12.85
2023-03-21T09:29:44.702Z,12.85
2023-03-21T09:34:46.452Z,12.32
2023-03-21T09:39:50.551Z,17.13
2023-03-21T09:45:21.786Z,12.93
2023-03-21T09:50:31.963Z,12.77
2023-03-21T09:55:36.159Z,13.23
2023-03-21T10:00:40.630Z,12.65
2023-03-21T10:05:46.776Z,10.90
2023-03-21T10:10:51.581Z,11.95
2023-03-21T10:16:06.653Z,13.35
2023-03-21T10:21:47.406Z,14.05
2023-03-21T10:26:44.125Z,16.40
2023-03-21T10:31:47.488Z,16.17
2023-03-21T10:36:49.446Z,15.73
2023-03-21T10:41:51.339Z,16.17
2023-03-21T10:46:58.610Z,21.02
2023-03-21T10:52:07.092Z,11.50
2023-03-21T10:57:18.170Z,11.52
2023-03-21T11:02:25.371Z,11.55
2023-03-21T11:07:31.097Z,15.63
2023-03-21T11:12:39.013Z,13.85
2023-03-21T11:17:41.650Z,14.45
2023-03-21T11:22:44.809Z,12.93
2023-03-21T11:27:53.074Z,18.10
2023-03-21T11:32:57.017Z,12.68
2023-03-21T11:37:58.793Z,13.65
2023-03-21T11:43:25.042Z,13.98
2023-03-21T11:48:27.229Z,18.35
2023-03-21T11:53:56.653Z,14.65
2023-03-21T11:59:16.478Z,11.68
2023-03-21T12:04:21.219Z,8.93
2023-03-21T12:09:43.689Z,12.73
2023-03-21T12:14:51.899Z,9.88
2023-03-21T12:20:10.558Z,10.27
2023-03-21T12:25:36.133Z,8.23
2023-03-21T12:30:38.022Z,10.65
2023-03-21T12:36:02.850Z,9.65
2023-03-21T12:41:23.559Z,7.78
2023-03-21T12:46:28.171Z,13.43
2023-03-21T12:51:35.223Z,11.60
2023-03-21T12:56:54.341Z,12.32
2023-03-21T13:02:01.438Z,13.60
2023-03-21T13:07:08.217Z,10.40
2023-03-21T13:12:24.728Z,13.77
2023-03-21T13:17:46.213Z,10.43
2023-03-21T13:22:47.995Z,7.68
2023-03-21T13:28:00.010Z,10.52
2023-03-21T13:33:13.376Z,11.23
2023-03-21T13:38:19.936Z,10.25
2023-03-21T13:43:43.174Z,9.30
2023-03-21T13:48:59.803Z,14.43
2023-03-21T13:54:24.222Z,9.25
2023-03-21T13:59:43.869Z,10.77
2023-03-21T14:05:03.918Z,12.67
2023-03-21T14:10:17.449Z,13.07
2023-03-21T14:15:29.756Z,15.32
2023-03-21T14:20:38.985Z,9.52
2023-03-21T14:25:47.575Z,12.43
2023-03-21T14:30:59.988Z,7.93
2023-03-21T14:36:08.978Z,9.73
2023-03-21T14:41:25.932Z,11.20
2023-03-21T14:46:27.910Z,10.27
2023-03-21T14:51:29.646Z,11.13
2023-03-21T14:56:35.712Z,6.32
2023-03-21T15:01:37.518Z,7.75
2023-03-21T15:06:59.309Z,7.18
2023-03-21T15:12:01.775Z,9.82
2023-03-21T15:17:06.012Z,9.20
2023-03-21T15:22:21.043Z,9.85
2023-03-21T15:27:24.784Z,7.65
2023-03-21T15:32:28.619Z,10.02
2023-03-21T15:37:36.807Z,6.07
2023-03-21T15:42:42.230Z,3.92
2023-03-21T15:47:49.763Z,3.88
2023-03-21T15:52:53.416Z,7.30
2023-03-21T15:58:01.071Z,4.05
2023-03-21T16:03:10.118Z,4.55
2023-03-21T16:08:27.267Z,3.80
2023-03-21T16:13:28.954Z,7.35
2023-03-21T16:18:31.962Z,8.95
2023-03-21T16:23:33.553Z,5.03
2023-03-21T16:28:36.371Z,6.45
2023-03-21T16:33:39.454Z,9.00
2023-03-21T16:38:42.235Z,6.25
2023-03-21T16:43:44.099Z,3.70
2023-03-21T16:48:47.922Z,6.85
2023-03-21T16:53:49.903Z,5.55
2023-03-21T16:58:54.798Z,3.75
2023-03-21T17:04:00.167Z,6.22
2023-03-21T17:09:02.368Z,7.53
2023-03-21T17:14:04.030Z,4.00
2023-03-21T17:19:22.054Z,3.95
2023-03-21T17:24:23.897Z,4.78
2023-03-21T17:29:25.551Z,5.10
2023-03-21T17:34:27.275Z,9.55
2023-03-21T17:39:28.932Z,2.95
2023-03-21T17:44:30.598Z,6.55
2023-03-21T17:49:32.245Z,2.65
2023-03-21T17:54:33.885Z,9.75
2023-03-21T17:59:35.436Z,12.45
2023-03-21T18:04:37.053Z,6.10
2023-03-21T18:09:38.695Z,8.98
2023-03-21T18:14:40.726Z,8.45
2023-03-21T18:19:43.253Z,7.90
2023-03-21T18:24:46.547Z,6.60
2023-03-21T18:35:16.208Z,9.95
2023-03-21T18:40:22.087Z,9.40
2023-03-21T18:45:25.186Z,7.28
2023-03-21T18:50:27.466Z,9.15
2023-03-21T18:55:44.528Z,8.45
2023-03-21T19:00:47.705Z,16.17
2023-03-21T19:05:49.446Z,8.18
2023-03-21T19:10:52.040Z,9.13
2023-03-21T19:15:54.138Z,10.50
2023-03-21T19:20:58.626Z,17.33
2023-03-21T19:26:00.342Z,13.30
2023-03-21T19:31:07.335Z,11.05
2023-03-21T19:36:18.415Z,9.90
2023-03-21T19:41:23.466Z,8.52
2023-03-21T19:46:26.477Z,11.43
2023-03-21T19:51:30.092Z,11.02
2023-03-21T19:56:34.355Z,12.00
2023-03-21T20:01:36.706Z,9.75
2023-03-21T20:06:38.629Z,11.43
2023-03-21T20:11:40.999Z,15.43
2023-03-21T20:16:43.804Z,11.20
2023-03-21T20:21:52.193Z,10.77
2023-03-21T20:26:55.651Z,10.77
2023-03-21T20:31:57.476Z,11.25
2023-03-21T20:36:59.418Z,7.68
2023-03-21T20:42:03.192Z,9.05
2023-03-21T20:47:07.684Z,14.55
2023-03-21T20:57:34.181Z,11.52
2023-03-21T21:02:36.447Z,7.55
2023-03-21T21:07:38.260Z,9.98
2023-03-21T21:12:42.157Z,9.70
2023-03-21T21:18:04.641Z,11.80
2023-03-21T21:23:09.506Z,10.93
2023-03-21T21:28:12.004Z,9.55
2023-03-21T21:33:14.682Z,13.07
2023-03-21T21:38:20.334Z,7.55
2023-03-21T21:43:23.007Z,11.07
2023-03-21T21:48:24.737Z,9.18
2023-03-21T21:53:28.315Z,13.27
2023-03-21T21:58:33.740Z,9.20
2023-03-21T22:03:36.612Z,9.70
2023-03-21T22:08:39.106Z,11.68
2023-03-21T22:13:40.896Z,8.88
2023-03-21T22:18:43.204Z,8.00
2023-03-21T22:23:44.960Z,6.50
2023-03-21T22:28:46.646Z,10.43
2023-03-21T22:33:48.793Z,5.85
2023-03-21T22:38:50.374Z,7.05
2023-03-21T22:43:53.006Z,7.65
2023-03-21T22:48:54.582Z,7.97
2023-03-21T22:53:56.175Z,5.80
2023-03-21T22:59:00.184Z,9.55
2023-03-21T23:04:01.873Z,6.80
2023-03-21T23:09:04.078Z,8.93
2023-03-21T23:14:08.416Z,7.07
2023-03-21T23:19:10.701Z,7.32
2023-03-21T23:24:13.022Z,6.32
2023-03-21T23:29:14.692Z,5.18
2023-03-21T23:34:16.512Z,8.18
2023-03-21T23:39:18.661Z,6.72
2023-03-21T23:44:20.531Z,4.22
2023-03-21T23:49:22.197Z,8.52
2023-03-21T23:54:24.139Z,4.75
2023-03-21T23:59:25.714Z,6.85
